首页
METAR-TAF:

METAR-TAF

机场 :

奧西耶克, 克罗地亚

纬度: 45-27N, 经度: 018-48E, 海拔: 88米

当前天气观测

该预报发布于34分钟前的21:00 UTC
风速6节,风向北转东北
温度 1°C
湿度 93%
气压 1020 hPa
能見度: 5000
轻雾

METAR: LDOS 262100Z 03006KT 5000 BR NSC 01/00 Q1020

时间: 22:34 (21:34 UTC)

预报

该预报发布于4小时和9分钟前的17:25 UTC
预报有效从26日的 18点(UTC)到 27日的 18点(UTC)
风速2节,风向多变
能見度: 7000
多云层高于3000英尺
几率 40% :
短暂存在
从 26日的 18点(UTC)到 27日的 03点(UTC)
能見度: 3000
多云层高于1000英尺
小雨, 轻雾
几率 30%
从 27日的 03点(UTC)到 27日的 09点(UTC)
能見度: 0300
层高于200英尺
短暂存在
从 27日的 08点(UTC)到 27日的 18点(UTC)
多云层高于700英尺

TAF: LDOS 261725Z 2618/2718 VRB02KT 7000 BKN030 TX05/2713Z TN00/2705Z PROB40 TEMPO 2618/2703 3000 -RA BR BKN010 PROB30 2703/2709 0300 FG VV002 TEMPO 2708/2718 BKN007

超过4000个机场的气象观测和天气预报(METAR&TAF报告)。

可查询的气象台以黄色和红色小点在地图上表示。

将鼠标移到小点上方,可查看气象台名称。

然后点击查看天气观测和预报。

如需切换地图:点击带黑十字的绿色按钮放大地图;点击带横线的绿色按钮缩小地图;或者点击绿色箭头查看邻近地区的地图。


METAR-TAF: